Lebanon, Illinois
Current Conditions -  °F | °C
As of 9:58 AM on Thursday 30 Oct 2014 (Local Time) from KBLV Reporting Station
Scattered Clouds Scattered Clouds  
Wind Chill: 46°   Ceiling: Unl
Heat Index: 49°   Visibility: 10mi
Dew Point: 42°   Wind: 7mph
Humidity: 78%   Direction: 170°S
Pressure: 30.15"   Gusts: NA
Location:  38.6°N, 89.81°W
Report Text: KBLV 301458Z AUTO 17006KT 10SM SCT095 10/06 A3015 RMK AO2 SLP215 T00950058 57005
Loading
Personal Weather Stations






























Interactive Weather Map
Tropical Storm Tracking
New forecast layout! Learn more

10-Day Weather Forecast

Advertisements
Track Severe Weather on mobile